sensor_id;sensor_type;location;lat;lon;timestamp;pressure;altitude;pressure_sealevel;temperature;humidity
31011;BME280;26395;53.412;19.598;2024-03-02T00:02:07;100044.63;;;10.14;90.68
31011;BME280;26395;53.412;19.598;2024-03-02T00:17:20;100035.48;;;10.10;91.17
31011;BME280;26395;53.412;19.598;2024-03-02T00:32:24;100033.73;;;10.09;90.61
31011;BME280;26395;53.412;19.598;2024-03-02T00:47:29;100030.03;;;10.11;90.80
31011;BME280;26395;53.412;19.598;2024-03-02T01:02:32;100023.58;;;10.11;91.15
31011;BME280;26395;53.412;19.598;2024-03-02T01:17:35;100031.49;;;9.99;90.85
31011;BME280;26395;53.412;19.598;2024-03-02T01:32:39;100020.50;;;9.87;90.99
31011;BME280;26395;53.412;19.598;2024-03-02T01:47:42;100007.82;;;9.80;91.65
31011;BME280;26395;53.412;19.598;2024-03-02T02:02:48;100010.70;;;9.73;92.16
31011;BME280;26395;53.412;19.598;2024-03-02T02:17:53;99993.10;;;9.59;92.00
31011;BME280;26395;53.412;19.598;2024-03-02T02:32:58;99975.73;;;9.40;92.29
31011;BME280;26395;53.412;19.598;2024-03-02T02:48:03;99974.27;;;9.25;93.40
31011;BME280;26395;53.412;19.598;2024-03-02T03:03:07;99968.70;;;9.06;93.28
31011;BME280;26395;53.412;19.598;2024-03-02T03:18:10;99979.64;;;9.15;92.39
31011;BME280;26395;53.412;19.598;2024-03-02T03:33:14;99986.08;;;9.21;93.43
31011;BME280;26395;53.412;19.598;2024-03-02T03:48:17;99980.52;;;9.35;93.22
31011;BME280;26395;53.412;19.598;2024-03-02T04:03:22;99976.54;;;9.33;93.76
31011;BME280;26395;53.412;19.598;2024-03-02T04:18:26;99979.66;;;9.25;93.44
31011;BME280;26395;53.412;19.598;2024-03-02T04:33:29;99970.52;;;9.13;94.26
31011;BME280;26395;53.412;19.598;2024-03-02T04:48:34;99973.86;;;9.11;94.39
31011;BME280;26395;53.412;19.598;2024-03-02T05:03:38;99976.54;;;9.04;94.87
31011;BME280;26395;53.412;19.598;2024-03-02T05:18:42;99974.45;;;9.12;95.22
31011;BME280;26395;53.412;19.598;2024-03-02T05:33:46;99985.98;;;9.20;94.98
31011;BME280;26395;53.412;19.598;2024-03-02T05:48:49;99997.53;;;9.32;94.78
31011;BME280;26395;53.412;19.598;2024-03-02T06:03:54;100007.67;;;9.32;94.77
31011;BME280;26395;53.412;19.598;2024-03-02T06:18:57;100010.91;;;9.28;94.94
31011;BME280;26395;53.412;19.598;2024-03-02T06:34:03;100028.10;;;9.24;95.27
31011;BME280;26395;53.412;19.598;2024-03-02T06:49:09;100031.73;;;9.28;95.06
31011;BME280;26395;53.412;19.598;2024-03-02T07:04:13;100024.81;;;9.29;95.10
31011;BME280;26395;53.412;19.598;2024-03-02T07:19:16;100040.34;;;9.45;94.41
31011;BME280;26395;53.412;19.598;2024-03-02T07:34:21;100050.50;;;9.59;94.93
31011;BME280;26395;53.412;19.598;2024-03-02T07:49:25;100061.98;;;9.73;94.46
31011;BME280;26395;53.412;19.598;2024-03-02T08:04:29;100072.09;;;9.78;93.92
31011;BME280;26395;53.412;19.598;2024-03-02T08:19:32;100083.77;;;9.80;94.55
31011;BME280;26395;53.412;19.598;2024-03-02T08:34:36;100104.86;;;9.90;94.47
31011;BME280;26395;53.412;19.598;2024-03-02T08:49:39;100114.20;;;9.90;94.64
31011;BME280;26395;53.412;19.598;2024-03-02T09:04:43;100109.55;;;9.95;94.22
31011;BME280;26395;53.412;19.598;2024-03-02T09:19:46;100114.68;;;10.20;93.80
31011;BME280;26395;53.412;19.598;2024-03-02T09:34:51;100108.41;;;10.43;93.18
31011;BME280;26395;53.412;19.598;2024-03-02T09:49:56;100119.05;;;10.81;92.66
31011;BME280;26395;53.412;19.598;2024-03-02T10:05:00;100136.67;;;10.93;91.61
31011;BME280;26395;53.412;19.598;2024-03-02T10:20:24;100132.45;;;11.08;91.13
31011;BME280;26395;53.412;19.598;2024-03-02T10:35:29;100112.91;;;11.25;90.24
31011;BME280;26395;53.412;19.598;2024-03-02T10:50:35;100105.48;;;11.61;89.63
31011;BME280;26395;53.412;19.598;2024-03-02T11:05:41;100107.45;;;11.99;88.58
31011;BME280;26395;53.412;19.598;2024-03-02T11:20:46;100094.16;;;12.14;87.28
31011;BME280;26395;53.412;19.598;2024-03-02T11:35:51;100077.56;;;12.35;86.41
31011;BME280;26395;53.412;19.598;2024-03-02T11:50:58;100067.11;;;12.57;86.29
31011;BME280;26395;53.412;19.598;2024-03-02T12:06:04;100055.61;;;12.90;85.79
31011;BME280;26395;53.412;19.598;2024-03-02T12:21:08;100055.89;;;12.85;85.29
31011;BME280;26395;53.412;19.598;2024-03-02T12:36:15;100054.92;;;12.98;85.29
31011;BME280;26395;53.412;19.598;2024-03-02T12:51:18;100063.90;;;12.89;84.66
31011;BME280;26395;53.412;19.598;2024-03-02T13:06:23;100051.89;;;13.11;84.46
31011;BME280;26395;53.412;19.598;2024-03-02T13:21:28;100039.17;;;13.06;84.48
31011;BME280;26395;53.412;19.598;2024-03-02T13:36:31;100047.50;;;12.95;84.75
31011;BME280;26395;53.412;19.598;2024-03-02T13:51:34;100046.74;;;12.94;84.81
31011;BME280;26395;53.412;19.598;2024-03-02T14:06:39;100046.32;;;12.84;84.96
31011;BME280;26395;53.412;19.598;2024-03-02T14:21:47;100044.20;;;12.74;85.31
31011;BME280;26395;53.412;19.598;2024-03-02T14:36:50;100048.30;;;12.73;85.37
31011;BME280;26395;53.412;19.598;2024-03-02T14:51:54;100046.05;;;12.66;85.53
31011;BME280;26395;53.412;19.598;2024-03-02T15:06:58;100042.25;;;12.58;85.92
31011;BME280;26395;53.412;19.598;2024-03-02T15:22:03;100040.23;;;12.38;86.37
31011;BME280;26395;53.412;19.598;2024-03-02T15:37:06;100032.47;;;12.33;86.91
31011;BME280;26395;53.412;19.598;2024-03-02T15:52:10;100041.89;;;12.27;86.92
31011;BME280;26395;53.412;19.598;2024-03-02T16:07:14;100048.55;;;12.20;86.94
31011;BME280;26395;53.412;19.598;2024-03-02T16:22:17;100053.47;;;12.12;86.47
31011;BME280;26395;53.412;19.598;2024-03-02T16:37:22;100058.61;;;11.99;86.76
31011;BME280;26395;53.412;19.598;2024-03-02T16:52:28;100057.92;;;11.93;87.19
31011;BME280;26395;53.412;19.598;2024-03-02T17:07:31;100057.52;;;11.84;87.39
31011;BME280;26395;53.412;19.598;2024-03-02T17:22:35;100070.02;;;11.77;88.02
31011;BME280;26395;53.412;19.598;2024-03-02T17:37:39;100076.52;;;11.62;88.55
31011;BME280;26395;53.412;19.598;2024-03-02T17:52:43;100083.70;;;11.43;89.10
31011;BME280;26395;53.412;19.598;2024-03-02T18:07:48;100086.39;;;11.24;89.57
31011;BME280;26395;53.412;19.598;2024-03-02T18:22:51;100087.36;;;11.12;89.52
31011;BME280;26395;53.412;19.598;2024-03-02T18:37:57;100098.13;;;10.88;90.25
31011;BME280;26395;53.412;19.598;2024-03-02T18:53:00;100102.89;;;10.89;90.11
31011;BME280;26395;53.412;19.598;2024-03-02T19:08:04;100108.92;;;10.83;90.27
31011;BME280;26395;53.412;19.598;2024-03-02T19:23:09;100107.38;;;10.71;90.48
31011;BME280;26395;53.412;19.598;2024-03-02T19:38:20;100114.20;;;10.65;90.26
31011;BME280;26395;53.412;19.598;2024-03-02T19:53:23;100115.81;;;10.63;90.23
31011;BME280;26395;53.412;19.598;2024-03-02T20:08:29;100116.63;;;10.54;89.87
31011;BME280;26395;53.412;19.598;2024-03-02T20:23:51;100115.92;;;10.40;89.78
31011;BME280;26395;53.412;19.598;2024-03-02T20:38:55;100112.55;;;10.34;90.17
31011;BME280;26395;53.412;19.598;2024-03-02T20:53:59;100109.64;;;10.29;89.92
31011;BME280;26395;53.412;19.598;2024-03-02T21:09:05;100102.73;;;10.19;89.98
31011;BME280;26395;53.412;19.598;2024-03-02T21:24:09;100105.40;;;10.12;90.03
31011;BME280;26395;53.412;19.598;2024-03-02T21:39:13;100098.92;;;10.12;90.07
31011;BME280;26395;53.412;19.598;2024-03-02T21:54:16;100097.54;;;10.16;90.05
31011;BME280;26395;53.412;19.598;2024-03-02T22:09:21;100094.10;;;10.00;90.20
31011;BME280;26395;53.412;19.598;2024-03-02T22:24:24;100084.52;;;10.13;89.41
31011;BME280;26395;53.412;19.598;2024-03-02T22:39:28;100081.77;;;10.05;89.64
31011;BME280;26395;53.412;19.598;2024-03-02T22:54:31;100083.20;;;9.97;89.80
31011;BME280;26395;53.412;19.598;2024-03-02T23:09:35;100081.20;;;10.00;89.96
31011;BME280;26395;53.412;19.598;2024-03-02T23:24:40;100083.60;;;10.00;89.73
31011;BME280;26395;53.412;19.598;2024-03-02T23:39:44;100077.73;;;9.95;90.07
31011;BME280;26395;53.412;19.598;2024-03-02T23:55:06;100070.81;;;9.88;90.07
